sim
Sign-in with your pilot id or email,
or register
Callsign
Passwort

Schedule Details

Flight Number: RYR5142 (3)
Departure: Karlsruhe/Baden-Baden Airport (EDSB) at 07:05
Arrival: Thessaloniki International Airport (LGTS) at 09:40
Route: Ryanair Passenger Schedule. Enter filed route here before submitting Pirep.

Weather Information
Getting current METAR information for EDSB 211820Z 03005KT CAVOK 19/11 Q1025
Getting current METAR information for LGTS 211820Z 10005KT CAVOK 27/13 Q1016 NOSIG

Schedule Frequency

Route Map